Mark Aaronson

Recruteur en chef - New York Red Bulls
21 Oct 2027
Jeudi
Processus

Personnalité

Adaptabilité (1) Ambition (8) Controverse (5) Loyauté (18) Pression (11) Professionnalisme (13) Sportivité (10) Tempérament (12)

Profil

Style d'entraînement Démocratique
Diplôme Continental B
Détermination 9
Gestion des joueurs 12
Motivation 6
Discipline 10
Satisfaction professionnelle
100%
Fatigue
0%
Rôle Recruteur en chef
Salaire 77.1K p/s
Contrat 14.03.2028

Performance

Comportement Bon
Efficacité de l'entraînement
44%
Développement des joueurs
25%
Prévention des blessures
65%
Mise en place tactique
55%

Événements récents

A évalué un joueur maintenant
A participé à une réunion de recrutement maintenant
A recommandé une cible de transfert maintenant
A recommandé une cible de transfert maintenant
A recommandé une cible de transfert maintenant
A recommandé une cible de transfert maintenant
A recommandé une cible de transfert maintenant
A évalué un joueur maintenant

Suivi en cours

292
Joueur Club Statut Capacité Confiance Observé Dernière observation Dernier vote
Jayden Danns Wigan Athletic Actif 132 / 145 40% 2 20.10.2027 -
Facundo Nadalín San Martín SJ Actif 116 / 109 40% 2 20.10.2027 -
Vicente Poggi Godoy Cruz Actif 128 / 136 40% 1 20.10.2027 -
Ho-yeon Jung Minnesota United FC Actif 131 / 113 40% 1 20.10.2027 -
Tomás Aranda Boca Juniors Actif 107 / 127 40% 1 20.10.2027 -
Luca Williams-Barnett Tranmere Rovers Actif 121 / 129 40% 1 20.10.2027 -
Alex Amaefula Kun Khalifat Actif 85 / 102 40% 4 19.10.2027 -
Wilfred Correa Caracas Actif 97 / 100 40% 2 19.10.2027 -
Alfie James Ventforet Kofu Actif 87 / 84 40% 2 19.10.2027 -
Juan Román Gimenez Estudiantes Actif 93 / 107 40% 3 18.10.2027 -
Archie Gray Derby County Actif 151 / 162 40% 2 18.10.2027 -
Ethan Williams Peterborough United Actif 117 / 118 40% 1 18.10.2027 -
Alejo Tabares All Boys Actif 115 / 111 40% 3 16.10.2027 -
Nicolás Paz San Martín SJ Actif 127 / 120 40% 3 16.10.2027 -
Tomás Jacob Atlanta United FC Actif 122 / 130 40% 2 16.10.2027 -
Stijn Spierings Real Salt Lake Actif 128 / 116 40% 2 15.10.2027 -
Gonzalo Abrego Godoy Cruz Actif 119 / 117 40% 1 15.10.2027 -
Babis Kostoulas Brighton Actif 140 / 150 40% 1 15.10.2027 -
Caleb Yirenkyi Coventry City Actif 144 / 142 40% 1 15.10.2027 -
Josh Nichols Tranmere Rovers Actif 115 / 117 40% 1 15.10.2027 -
Facundo Mura Inter Miami CF Actif 129 / 133 40% 2 13.10.2027 -
Francisco Facello Chacarita Juniors Actif 118 / 118 40% 2 13.10.2027 -
Sergio Reguilón Inter Miami CF Actif 140 / 134 40% 2 13.10.2027 -
Malick Yalcouyé Brighton Actif 127 / 130 40% 1 13.10.2027 -
Musa Malik Ikorodu City Actif 90 / 91 40% 1 13.10.2027 -
Mauricio Amaro Atlanta United FC Actif 121 / 133 40% 3 11.10.2027 -
Gonzalo Mottes Chacarita Juniors Actif 115 / 109 40% 3 11.10.2027 -
Andrew Gutman Chicago Fire Actif 124 / 112 40% 1 11.10.2027 -
Martín García Atlanta Actif 111 / 107 40% 2 10.10.2027 -
Sergi Palencia Los Angeles Football Club Actif 122 / 124 40% 2 08.10.2027 -
Steven Alzate Atlanta United FC Actif 134 / 127 40% 3 08.10.2027 -
Chinedu Nwosu Bendel Insurance Actif 79 / 90 40% 2 08.10.2027 -
Bruno Leyes Godoy Cruz Actif 125 / 132 40% 2 08.10.2027 -
Ryan Kavuma-McQueen Accrington Stanley Actif 119 / 120 40% 1 08.10.2027 -
Esteban de Lima Tacuarembo Actif 95 / 91 40% 1 08.10.2027 -
Aaron Herrera Charlotte Football Club Actif 129 / 125 40% 2 06.10.2027 -
Julián Cosi Madryn Actif 108 / 107 40% 1 06.10.2027 -
Lucas Sanabria LA Galaxy Actif 138 / 132 40% 2 05.10.2027 -
Reggie Cannon Colorado Rapids Actif 117 / 107 40% 1 05.10.2027 -
Brian Calderara Chacarita Juniors Actif 116 / 124 40% 2 04.10.2027 -
Nicolás Garayalde Liverpool Montevideo Actif 122 / 123 40% 1 04.10.2027 -
Mbekezeli Mbokazi Chicago Fire Actif 126 / 126 40% 1 04.10.2027 -
Chimobi Igwilo Rangers International Actif 97 / 97 40% 1 04.10.2027 -
Chaka Coulibaly Remo Stars Actif 82 / 99 40% 2 03.10.2027 -
Santiago López García Banfield Actif 124 / 125 40% 1 01.10.2027 -
Nicolás Romero Minnesota United FC Actif 131 / 137 40% 1 01.10.2027 -
Agustín Benítez Defensores Actif 112 / 107 40% 2 30.09.2027 -
Tomás Escalante Plaza Colonia Actif 123 / 124 40% 2 30.09.2027 -
Abel Bustos Racing Actif 119 / 113 40% 3 30.09.2027 -
Mateo Peralta Danubio Actif 109 / 120 40% 2 29.09.2027 -
Malte Amundsen Columbus Crew Actif 120 / 112 40% 1 29.09.2027 -
Lucas Agazzi Defensor Sporting Actif 124 / 135 40% 1 29.09.2027 -
Juan Camilo Pérez Carabobo Actif 115 / 106 40% 2 28.09.2027 -
Delvin Alfonzo Deportivo Tachira Actif 118 / 111 40% 1 28.09.2027 -
Bryan Ramírez FC Cincinnati Actif 127 / 136 40% 2 27.09.2027 -
Agustín Pereira Albion Actif 108 / 111 40% 1 27.09.2027 -
Leonardo Borja La Equidad Actif 142 / 156 40% 1 26.09.2027 -
Lucas Camejo River Plate Actif 85 / 86 40% 1 24.09.2027 -
Emiliano Álvarez Progreso Actif 122 / 125 40% 2 23.09.2027 -
Leandro Lozano Boca Juniors Actif 125 / 131 40% 1 23.09.2027 -
Elías Báez Atlanta United FC Actif 122 / 135 40% 1 21.09.2027 -
Cole Bassett Portland Timbers Actif 125 / 135 40% 1 21.09.2027 -
Nelson Palacio Toronto FC Actif 114 / 120 40% 1 20.09.2027 -
Ezekiah Omuri Shabana Actif 83 / 81 40% 1 20.09.2027 -
Bazoumana Touré Newcastle United Actif 146 / 151 40% 1 20.09.2027 -
Nazareno Colombo Racing Club Actif 126 / 128 40% 1 18.09.2027 -
Joseph Rosales Austin FC Actif 124 / 118 40% 1 18.09.2027 -
Ignacio Abraham Banfield Actif 122 / 132 40% 1 17.09.2027 -
Obinna Nwobodo FC Cincinnati Actif 125 / 124 40% 1 17.09.2027 -
Tomás Rojas Atlanta Actif 109 / 103 40% 1 16.09.2027 -
Franco Pizzichillo Montevideo City Torque Actif 118 / 120 40% 1 16.09.2027 -
Brooke Norton-Cuffy Inter Miami CF Actif 138 / 147 40% 1 16.09.2027 -
Ezequiel Neira Carabobo Actif 121 / 113 40% 1 15.09.2027 -
Lukas Engel Real Salt Lake Actif 122 / 122 40% 1 15.09.2027 -
Eddie Segura Los Angeles Football Club Actif 118 / 107 40% 1 14.09.2027 -
Mads Bomholt Stabaek Actif 107 / 111 40% 1 14.09.2027 -
Abdoul Ouattara Burton Albion Actif 132 / 129 40% 1 14.09.2027 -
Mustapha Umar Kano Pillars Actif 80 / 82 40% 1 14.09.2027 -
Nahuel Herrera Penarol Actif 131 / 131 40% 1 12.09.2027 -
Maren Kefas Plateau United Actif 85 / 84 40% 1 12.09.2027 -
Mateo Silvetti Los Angeles Football Club Actif 123 / 131 40% 1 11.09.2027 -
Estêvão Millwall Actif 144 / 160 40% 1 11.09.2027 -
Shaq Moore FC Dallas Actif 128 / 131 40% 1 08.09.2027 -
Facundo Ardiles Estudiantes Actif 107 / 99 40% 1 08.09.2027 -
Thomas Ortega Quilmes Actif 117 / 119 40% 1 07.09.2027 -
Jan Bürger Gillingham Actif 118 / 115 40% 1 19.07.2027 -
Joel McGregor Swindon Town Perdu 95 / 96 40% 1 19.07.2027 -
Ibrahim Sabiu Bendel Insurance Actif 90 / 104 40% 1 19.07.2027 -
Pedro de la Vega FC Dallas Actif 133 / 134 66% 1 08.07.2027 Approuver
Marezi Portsmouth Actif 121 / 125 40% 1 08.07.2027 -
Zach Hemming Chesterfield Actif 116 / 105 40% 5 04.07.2027 -
Radek Vítek Middlesbrough Actif 141 / 152 40% 5 04.07.2027 -
Francesco D'Alterio Ternana Actif 114 / 116 40% 1 04.07.2027 -
Wladimiro Falcone Lecce Actif 137 / 150 40% 6 03.07.2027 -
Jacob Widell Zetterström Derby County Actif 133 / 129 40% 6 03.07.2027 -
Nicolas Schmid Portsmouth Actif 130 / 125 40% 7 02.07.2027 -
Josh Vickers Rotherham United Actif 118 / 118 40% 9 02.07.2027 -
Corey Addai Stockport County Actif 114 / 112 40% 1 02.07.2027 -
Max O'Leary West Bromwich Albion Actif 127 / 133 40% 10 30.06.2027 -
Grégoire Coudert Burnley Actif 128 / 137 40% 10 30.06.2027 -
Egil Selvik Watford Actif 131 / 125 40% 11 30.06.2027 -
Joel Pereira Reading Actif 118 / 118 40% 12 29.06.2027 -
Dean Henderson Crystal Palace Actif 157 / 148 40% 8 29.06.2027 -
Balázs Tóth Blackburn Rovers Actif 126 / 130 40% 5 29.06.2027 -
Jonathan Klinsmann Cesena Actif 128 / 137 40% 2 28.06.2027 -
Daniel Kyerewaa Reading Actif 121 / 124 40% 1 28.06.2027 -
Cian Ashford Cardiff City Actif 122 / 132 40% 1 28.06.2027 -
David Brooks Bournemouth Actif 146 / 140 40% 1 28.06.2027 -
Gianluca Saro Foggia Actif 116 / 112 40% 3 27.06.2027 -
Jamie Cumming Oxford United Actif 126 / 121 40% 2 27.06.2027 -
Bradley Mabunda SuperSport United Actif 121 / 129 40% 2 26.06.2027 -
Christian Walton Ipswich Town Actif 129 / 125 40% 12 26.06.2027 -
Alfie Whiteman Newport County Actif 110 / 101 40% 2 24.06.2027 -
Matteo Rizzo Cosenza Actif 110 / 116 40% 1 24.06.2027 -
Simone Scuffet Pisa Actif 136 / 140 40% 5 22.06.2027 -
Will Dennis Milton Keynes Dons Actif 111 / 114 40% 2 22.06.2027 -
Othmane Maamma Watford Actif 125 / 139 40% 2 21.06.2027 -
Welington Southampton Actif 135 / 134 40% 1 21.06.2027 -
Kasey McAteer Ipswich Town Actif 137 / 127 40% 1 21.06.2027 -
George Wickens Lincoln City Actif 124 / 115 40% 8 19.06.2027 -
Caoimhin Kelleher Brentford Actif 157 / 148 40% 8 17.06.2027 -
Lorenzo Palmisani Frosinone Actif 131 / 131 40% 3 17.06.2027 -
Joe Gelhardt Hull City Actif 136 / 139 40% 1 17.06.2027 -
Robin Roefs Sunderland Actif 147 / 152 40% 4 15.06.2027 -
Alex Lowry Wycombe Wanderers Actif 114 / 116 40% 1 15.06.2027 -
Ronald Swansea City Actif 130 / 130 40% 1 15.06.2027 -
Vladan Kovačević Norwich City Actif 123 / 115 40% 3 13.06.2027 -
Alessio Cragno Südtirol Actif 130 / 116 40% 2 11.06.2027 -
Joe Lumley Sheffield Wednesday Actif 116 / 113 40% 6 09.06.2027 -
Michele Cerofolini Bari Actif 131 / 127 40% 2 09.06.2027 -
Arijanet Murić Sassuolo Actif 141 / 147 40% 5 08.06.2027 -
Mohamed Belloumi Hull City Actif 143 / 141 40% 1 07.06.2027 -
Ryoya Morishita Blackburn Rovers Actif 127 / 130 40% 2 04.06.2027 -
Kwame Poku Queens Park Rangers Actif 121 / 120 40% 2 04.06.2027 -
Jack McGlynn Stoke City Actif 134 / 128 40% 1 04.06.2027 -
Sergio Barlocco Trento Actif 111 / 118 40% 1 02.06.2027 -
Justin Bijlow Genoa Actif 147 / 157 40% 3 01.06.2027 -
Murphy Cooper Plymouth Argyle Actif 120 / 125 40% 5 31.05.2027 -
Samuele Perisan Audace Cerignola Actif 118 / 121 40% 2 31.05.2027 -
Riccardo Gagno Vicenza Actif 125 / 116 40% 6 30.05.2027 -
Zeidane Inoussa Swansea City Actif 127 / 123 40% 1 30.05.2027 -
Abdul Fatawu Leicester City Actif 137 / 141 40% 1 30.05.2027 -
Derensili Sanches Fernandes Huddersfield Town Actif 128 / 116 40% 3 29.05.2027 -
Hwang Hee-Chan Wolverhampton Actif 136 / 131 40% 2 29.05.2027 -
Harry Clarke Preston Actif 128 / 136 40% 1 29.05.2027 -
Michael Cooper Sheffield United Actif 131 / 128 40% 12 26.05.2027 -
Daniel Iversen Preston Actif 125 / 135 40% 4 25.05.2027 -
Jason Knight Bristol City Actif 133 / 121 40% 4 24.05.2027 -
Ross McCrorie Bristol City Actif 130 / 132 40% 1 24.05.2027 -
Kostantis Tzolakis Hull City Actif 140 / 143 40% 7 17.05.2027 -
Maduka Okoye Udinese Actif 137 / 134 40% 1 16.05.2027 -
Lukas Jensen Millwall Actif 120 / 126 40% 5 15.05.2027 -
Sorba Thomas Stoke City Actif 130 / 133 40% 2 13.05.2027 -
Finn Azaz Southampton Actif 131 / 136 40% 2 12.05.2027 -
Carlos Vicente Birmingham Actif 147 / 148 40% 2 12.05.2027 -
Filip Marschall Stevenage Actif 113 / 123 40% 8 08.05.2027 -
Tommaso Nobile Renate Actif 113 / 113 40% 1 03.05.2027 -
Saša Lukić Ipswich Town Actif 145 / 131 40% 2 29.04.2027 -
Tomáš Rigo Stoke City Actif 133 / 127 40% 1 29.04.2027 -
Toby Collyer West Bromwich Albion Actif 132 / 141 40% 1 25.04.2027 -
Jack Diamond Stockport County Actif 114 / 121 40% 1 25.04.2027 -
Pol Tristán Barnsley Actif 112 / 111 40% 2 21.04.2027 -
James Trafford Leeds United Actif 143 / 148 40% 8 19.04.2027 -
Bosun Lawal Stoke City Actif 124 / 120 40% 1 19.04.2027 -
Sipho Chaine Orlando Pirates Actif 114 / 133 40% 6 16.04.2027 -
Oswin Appollis Orlando Pirates Actif 128 / 129 40% 6 14.04.2027 -
Morgan Whittaker Middlesbrough Actif 135 / 122 40% 2 14.04.2027 -
Louie Barry Sheffield Wednesday Actif 120 / 132 40% 1 14.04.2027 -
Tshepang Moremi Orlando Pirates Actif 121 / 116 40% 2 11.04.2027 -
Ollie Tanner Cardiff City Actif 116 / 120 40% 1 11.04.2027 -
Max Bird Birmingham Actif 135 / 122 40% 1 11.04.2027 -
João Virgínia Wolverhampton Actif 123 / 121 40% 6 06.04.2027 -
Zack Steffen Spartak Moscow Actif 137 / 124 40% 9 05.04.2027 -
Matti Peltola DC United Actif 108 / 103 76% 1 05.04.2027 Approuver
Gianmarco Vannucchi Benevento Actif 122 / 127 40% 1 02.04.2027 -
Andrea Zaccagno Torres Actif 114 / 117 40% 1 27.03.2027 -
Facundo Torres LOSC Lille Actif 134 / 134 67% 1 14.02.2027 Approuver
Stanislav Agkatsev Sunderland Négociation 132 / 133 66% 1 14.02.2027 Approuver
Bitello SC Freiburg Actif 135 / 135 68% 1 14.02.2027 Approuver
Luiz Henrique West Ham United Actif 144 / 149 80% 1 14.02.2027 Approuver
Israel Reyes CSKA Moscow Négociation 137 / 137 68% 1 14.02.2027 Approuver
Patson Daka Leicester City Actif 123 / 120 40% 1 13.02.2027 -
Zeki Amdouni Burnley Actif 129 / 140 40% 1 13.02.2027 -
Michael Zetterer Leeds United Actif 142 / 129 40% 1 11.02.2027 -
Enzo Le Fée Sunderland Actif 143 / 148 40% 1 09.02.2027 -
Kwadwo Baah Watford Actif 132 / 134 40% 1 09.02.2027 -
Stanley Mills Oxford United Actif 126 / 130 40% 1 09.02.2027 -
Léo Scienza Southampton Actif 145 / 138 40% 5 08.02.2027 -
Lewis Morgan SuperSport United Actif 135 / 125 40% 7 07.02.2027 -
Adrien Truffert Bournemouth Actif 145 / 153 40% 1 07.02.2027 -
Bertrand Traoré Sunderland Actif 135 / 129 40% 1 07.02.2027 -
Jack Rudoni Coventry City Actif 135 / 140 40% 1 05.02.2027 -
Amine Adli Bournemouth Actif 140 / 135 40% 2 04.02.2027 -
Giorgi Chakvetadze Watford Actif 130 / 137 40% 1 04.02.2027 -
Rodrigo Gomes Wolverhampton Actif 144 / 148 40% 1 03.02.2027 -
Ali Ahmed Norwich City Actif 119 / 118 40% 1 02.02.2027 -
Riley McGree Middlesbrough Actif 127 / 138 40% 1 02.02.2027 -
Tyrese Campbell Sheffield United Actif 124 / 127 40% 1 01.02.2027 -
Tom Fellows Southampton Actif 134 / 122 40% 1 01.02.2027 -
Callum Hudson-Odoi Nottingham Forest Actif 146 / 157 40% 2 30.01.2027 -
Kenny Tete Fulham Actif 145 / 134 40% 2 29.01.2027 -
Marcelo Allende Mamelodi Sundowns Actif 125 / 119 40% 7 28.01.2027 -
Mandla Erasmus SuperSport United Actif 115 / 137 40% 1 28.01.2027 -
Teden Mengi Luton Town Actif 124 / 123 40% 1 28.01.2027 -
Callum Doyle Wrexham Actif 127 / 137 40% 1 28.01.2027 -
Callum O'Hare Sheffield United Actif 126 / 138 40% 1 26.01.2027 -
Gonzalo Fulham Actif 146 / 140 40% 1 25.01.2027 -
Xaver Schlager Nottingham Forest Actif 151 / 155 40% 1 25.01.2027 -
Liam Roberts Mansfield Town Actif 117 / 101 40% 1 25.01.2027 -
Everton Bala Levski Actif 122 / 124 40% 1 21.01.2027 -
Richard Ludha MFK Skalica Actif 119 / 101 40% 2 18.01.2027 -
Petar Stanić Ludogorets Actif 132 / 142 40% 2 16.01.2027 -
Marquinhos APOEL Actif 137 / 141 40% 1 16.01.2027 -
Álex Centelles Levski Actif 124 / 123 40% 2 14.01.2027 -
Evgeny Staver Rubin Actif 120 / 109 40% 1 14.01.2027 -
Williams Manyama SuperSport United Actif 117 / 116 40% 1 13.01.2027 -
Tomás Marchiori Vélez Actif 128 / 125 40% 2 12.01.2027 -
Yves Bissouma Tottenham Actif 149 / 150 40% 4 09.01.2027 -
Christian Krasnodar Actif 143 / 115 40% 2 08.01.2027 -
Teboho Mabunda SuperSport United Actif 111 / 107 40% 2 08.01.2027 -
Marquinhos Spartak Moscow Actif 141 / 134 40% 9 06.01.2027 -
Iván Arboleda Sarmiento Actif 119 / 131 40% 2 05.01.2027 -
Hany Mukhtar Spezia Actif 140 / 142 40% 3 05.01.2027 -
Samu Maccabi Netanya Actif 115 / 123 40% 1 03.01.2027 -
Pedrinho Shakhtar Actif 139 / 148 40% 2 31.12.2026 -
Nicolás Fernández Mercau Shakhtar Actif 135 / 132 40% 9 26.12.2026 -
Bathusi Aubaas Mamelodi Sundowns Actif 117 / 125 40% 1 26.12.2026 -
Martin Zlomislić Qarabag Actif 118 / 103 40% 4 24.12.2026 -
Marc-Aurèle Caillard Debrecen Actif 112 / 119 40% 2 24.12.2026 -
José Devecchi San Lorenzo Actif 123 / 128 40% 1 18.12.2026 -
Ruben van Bommel Ferencvaros Actif 130 / 132 40% 3 17.12.2026 -
Suleiman Camara Slovan Bratislava Actif 115 / 118 40% 1 14.12.2026 -
Jordan Lotomba Bloemfontein Celtic Actif 122 / 116 40% 6 13.12.2026 -
Hélio Varela Maccabi Tel Aviv Actif 120 / 117 40% 1 13.12.2026 -
Victor Parada Spartak Moscow Actif 128 / 132 40% 1 13.12.2026 -
Drake Callender Minnesota United FC Actif 130 / 110 40% 5 07.12.2026 -
Nicolás Sumavil Platense Actif 113 / 129 40% 2 07.12.2026 -
Femi Seriki Sheffield United Actif 122 / 117 40% 1 07.12.2026 -
Marko Malenica NK Osijek Actif 122 / 122 40% 1 06.12.2026 -
Conrad Wallem Austria Wien Actif 134 / 136 40% 4 04.12.2026 -
Jack Currie Oxford United Actif 117 / 128 40% 3 01.12.2026 -
Joaquín Gho Argentinos Juniors Actif 122 / 123 40% 2 30.11.2026 -
Angus Gunn San Jose Earthquakes Actif 119 / 110 40% 1 29.11.2026 -
Luis Ingolotti Atlético Tucumán Actif 128 / 131 40% 1 25.11.2026 -
Emilio Di Fulvio Colegiales Actif 115 / 114 40% 1 25.11.2026 -
Reda Khadra Qarabag Actif 137 / 139 40% 4 22.11.2026 -
Gabriel Jesus Barcelona Actif 155 / 158 40% 3 20.11.2026 -
Breel Embolo Atlanta United FC Actif 136 / 138 40% 3 20.11.2026 -
Valentín Barco Chelsea Actif 143 / 148 40% 1 18.11.2026 -
Alexandr Koryakin Krasnodar Actif 115 / 114 40% 1 13.11.2026 -
Elias Hadaya Sandefjord Actif 115 / 111 40% 1 13.11.2026 -
Brais Méndez Columbus Crew Actif 149 / 142 40% 6 12.11.2026 -
Sébastien Cibois Portimonense Actif 115 / 103 40% 1 10.11.2026 -
Dominik Takáč Slovan Bratislava Actif 128 / 115 40% 1 02.11.2026 -
Stanley Nwabali Astana Actif 102 / 107 40% 1 02.11.2026 -
Maxim De Cuyper Brighton Actif 139 / 129 40% 4 01.11.2026 -
Antony Portland Timbers Actif 125 / 126 40% 1 27.10.2026 -
Khuliso Mudau Mamelodi Sundowns Actif 123 / 121 40% 3 25.10.2026 -
Ryan Gauld Vancouver Whitecaps Actif 138 / 137 40% 3 25.10.2026 -
Aljaž Ivačič DAC Dunajska Streda Actif 117 / 113 40% 1 25.10.2026 -
Luka Gavran Toronto FC Actif 118 / 107 40% 2 24.10.2026 -
Lucas Bruera Carabobo Actif 118 / 125 40% 1 21.10.2026 -
Patrick Schulte Columbus Crew Actif 129 / 133 40% 1 21.10.2026 -
Roman Celentano FC Cincinnati Actif 123 / 115 40% 1 16.10.2026 -
João Gomes Aston Villa Actif 144 / 149 40% 2 15.10.2026 -
Jonathan Bamba Chicago Fire Actif 133 / 124 40% 1 10.10.2026 -
Antonio Galeano Remo Stars Actif 118 / 114 40% 3 06.10.2026 -
Tadeo Allende Inter Miami CF Actif 123 / 110 40% 1 06.10.2026 -
Diego Luna Real Salt Lake Actif 132 / 124 40% 1 05.10.2026 -
Andile Manyama SuperSport United Actif 127 / 108 40% 1 05.10.2026 -
Allan Saint-Maximin Charlotte Football Club Actif 138 / 130 40% 1 03.10.2026 -
Djordje Mihailović Toronto FC Actif 133 / 137 40% 2 02.10.2026 -
David Da Costa Portland Timbers Actif 133 / 140 40% 1 02.10.2026 -
Dayne St. Clair Inter Miami CF Actif 125 / 118 40% 2 30.09.2026 -
John Pulskamp Sporting Kansas City Actif 119 / 122 40% 1 29.09.2026 -
Alejandro Araque Deportivo Tachira Actif 118 / 103 40% 1 28.09.2026 -
Metod Jurhar Voluntari Actif 116 / 123 40% 1 25.09.2026 -
Andreas Leitner SV Ried Actif 111 / 108 40% 1 25.09.2026 -
Riqui Puig LA Galaxy Actif 135 / 137 40% 1 21.09.2026 -
Cristopher Varela Deportivo La Guaira Actif 107 / 119 40% 1 21.09.2026 -
Mateusz Kochalski Dynamo Kyiv Actif 137 / 147 40% 1 21.09.2026 -
Joaquín Pereyra Minnesota United FC Actif 131 / 128 40% 1 19.09.2026 -
Tomás Chancalay Minnesota United FC Actif 130 / 121 40% 1 18.09.2026 -
Aubrey Modiba Mamelodi Sundowns Actif 114 / 107 40% 2 17.09.2026 -
Telasco Segovia Inter Miami CF Actif 125 / 143 40% 1 17.09.2026 -
Pavel Bucha FC Cincinnati Actif 131 / 126 40% 1 17.09.2026 -
Marcus Ingvartsen San Diego Football Club Actif 132 / 128 40% 1 16.09.2026 -
Griffin Yow New England Revolution Actif 118 / 116 40% 1 16.09.2026 -
Elias Achouri San Diego Football Club Actif 133 / 130 40% 1 13.09.2026 -
Rob Holding Colorado Rapids Actif 118 / 122 40% 1 10.09.2026 -
Josh Sargent Toronto FC Actif 124 / 128 40% 1 03.08.2026 -
Chuchu Ramírez Nacional Actif 123 / 121 40% 1 03.08.2026 -